Pagina principală
METAR-TAF:

METAR-TAF

Aeroporturi :

The Dalles, Oregon, Statele Unite ale Americii

Latitudine: 45-37-07N, longitudine: 121-10-02W, elevație: 75 m

Observații meteo curente

Raportul a fost făcut în urmă cu 1 oră și 0 de minute, la 03:53 UTC
Vânt 14 kt de la Vest/Nord-vest
Temperatură 29°C
Umiditate 20%
Presiune 1015 hPa
Vizibilitate: 16.1 km
Cer senin

METAR: KDLS 190353Z AUTO 30014KT 10SM CLR 29/04 A2996 RMK AO2 SLP144 T02890044

Ora: 21:53 (04:53 UTC)

Prognoză

Raportul a fost făcut în urmă cu 5 ore și 32 de minute, la 23:21 UTC
Prognoză valabilă de la 19 ora 00 UTC la 19 ora 24 UTC
Vânt 15 kt de la Nord-vest cu rafale de până la 25 kt
Vizibilitate: 10 km
Cer senin
De la 19 ora 0800 UTC
Vânt 13 kt de la Vest/Nord-vest
Vizibilitate: 10 km
Cer senin

TAF: KDLS 182321Z 1900/1924 31015G25KT P6SM SKC FM190800 30013KT P6SM SKC

Observații și prognoze meteo pentru peste 4.000 de aeroporturi (rapoarte METAR și TAF).

Stațiile disponibile sunt reprezentate pe hartă prin puncte galbene și roșii.

Țineți indicatorul mouse-ului pe punctul dorit pentru a vedea denumirea stației.

Apoi, faceți clic pentru a vedea observațiile și prognozele meteorologice.

Pentru a schimba harta: Pentru mărire, faceți clic pe butoanele verzi cu cruce neagră; pentru micșorare, pe butonul verde cu o liniuță; pentru hărți învecinate, pe săgețile verzi.


METAR-TAF: